Alliance, NE

4:38 PM MST on January 31, 2015 (GMT -0700)
Alliance Municipal | Change Station
CLOSE
Current Station
Airport
Location: Alliance,
Elevation: 3930 ft
Nearby Weather Stations

Elev 3930 ft 42.06 °N, 102.80 °W | Updated 13 minutes ago

Snow
Snow
28 °F
Feels Like 17 °F
N
14
Wind Variable Wind from NNE

Today
High -- | Low -- °F
--% Chance of Precip.
Yesterday
High -- | Low -- °F
Precip. -- in
7:05 AM 5:04 PM
Waxing Gibbous, 92% visible
Pressure 29.86 in
Visibility 0.5 miles
Clouds Few 600 ft
Overcast 1100 ft
Windchill 17 °F
Dew Point 26 °F
Humidity 92%
Rainfall 0.00 in
Snow Depth Not available.
UV 0 out of 12
Pollen .10 out of 12
Air Quality Not available.
Flu Activity Not available.
SPECI KAIA 312325Z AUTO 03012KT 1/2SM SN FZFG FEW006 OVC011 M02/M03 A2986 RMK AO2 P0000 T10221033

More Conditions Fewer Conditions

Pressure 29.86 in
Visibility 0.5 miles
Clouds Few 600 ft
Overcast 1100 ft
Windchill 17 °F
Dew Point 26 °F
Humidity 92%
Rainfall 0.00 in
Snow Depth Not available.
UV 0 out of 12
Pollen .10 out of 12
Air Quality Not available.
Flu Activity Not available.
SPECI KAIA 312325Z AUTO 03012KT 1/2SM SN FZFG FEW006 OVC011 M02/M03 A2986 RMK AO2 P0000 T10221033

More Conditions Fewer Conditions

10-Day Weather Forecast

Almanac

Astronomy

Jan. 31, 2015 Rise Set
Actual Time
Civil Twilight
Nautical Twilight
Astronomical Twilight
Moon
Length of Visible Light
Length of Day
Tomorrow will be .
, % of the Moon is Illuminated

Today's Extremes

State Highs State Lows

Community

WunderPhotos

Upload Photos

1,792,248 photos uploaded!

WunderBlogs® & News

Nearby

Air Quality

  Air Quality AQ Index Pollutant
Not available.

Snow Depth

Station Depth Elevation

Earthquake Activity

City Distance Mag. Time & Date
Minimum magnitude displayed is 2.5.

Coastal Water Temperatures

Place Temperature

Nearby Weather Stations